createdAt,value
2022-09-15T00:04:34.522Z,100190.06
2022-09-15T00:09:35.930Z,100187.75
2022-09-15T00:14:37.180Z,100197.16
2022-09-15T00:19:39.053Z,100208.47
2022-09-15T00:24:41.469Z,100191.16
2022-09-15T00:29:43.172Z,100194.72
2022-09-15T00:34:44.582Z,100185.34
2022-09-15T00:39:45.839Z,100195.88
2022-09-15T00:44:49.951Z,100189.72
2022-09-15T00:49:59.012Z,100176.31
2022-09-15T00:55:03.747Z,100190.09
2022-09-15T01:00:11.113Z,100188.69
2022-09-15T01:05:15.388Z,100168.91
2022-09-15T01:10:27.774Z,100188.69
2022-09-15T01:16:01.531Z,100181.13
2022-09-15T01:21:24.672Z,100185.56
2022-09-15T01:26:44.109Z,100178.72
2022-09-15T01:32:13.123Z,100184.69
2022-09-15T01:37:20.928Z,100162.47
2022-09-15T01:42:24.905Z,100177.06
2022-09-15T01:47:29.788Z,100191.84
2022-09-15T01:52:32.256Z,100186.88
2022-09-15T01:57:33.736Z,100182.59
2022-09-15T02:02:42.539Z,100191.06
2022-09-15T02:07:48.918Z,100193.75
2022-09-15T02:12:59.841Z,100157.72
2022-09-15T02:18:03.776Z,100185.00
2022-09-15T02:23:11.377Z,100175.53
2022-09-15T02:28:15.993Z,100191.97
2022-09-15T02:33:20.950Z,100194.53
2022-09-15T02:38:23.002Z,100182.41
2022-09-15T02:43:24.405Z,100183.19
2022-09-15T02:48:25.752Z,100205.53
2022-09-15T02:53:27.111Z,100189.22
2022-09-15T02:58:28.733Z,100204.53
2022-09-15T03:03:31.977Z,100209.56
2022-09-15T03:08:33.472Z,100210.13
2022-09-15T03:13:34.794Z,100211.00
2022-09-15T03:18:36.838Z,100209.19
2022-09-15T03:23:38.226Z,100198.00
2022-09-15T03:28:39.850Z,100206.56
2022-09-15T03:33:41.263Z,100190.22
2022-09-15T03:38:42.532Z,100203.84
2022-09-15T03:43:43.853Z,100201.91
2022-09-15T03:48:45.401Z,100201.03
2022-09-15T03:53:46.754Z,100195.78
2022-09-15T03:58:48.011Z,100197.47
2022-09-15T04:03:51.359Z,100191.41
2022-09-15T04:08:54.201Z,100193.09
2022-09-15T04:13:56.221Z,100192.06
2022-09-15T04:18:57.915Z,100203.28
2022-09-15T04:23:59.371Z,100204.00
2022-09-15T04:29:04.600Z,100199.59
2022-09-15T04:34:06.407Z,100200.38
2022-09-15T04:39:07.650Z,100210.56
2022-09-15T04:44:09.111Z,100221.66
2022-09-15T04:49:10.366Z,100214.78
2022-09-15T04:54:11.713Z,100208.50
2022-09-15T04:59:14.682Z,100208.56
2022-09-15T05:04:16.052Z,100219.81
2022-09-15T05:09:17.359Z,100220.66
2022-09-15T05:14:18.828Z,100217.22
2022-09-15T05:19:20.270Z,100221.44
2022-09-15T05:24:21.791Z,100224.00
2022-09-15T05:29:23.203Z,100225.72
2022-09-15T05:34:24.461Z,100230.00
2022-09-15T05:39:25.795Z,100224.03
2022-09-15T05:44:27.108Z,100229.13
2022-09-15T05:49:29.421Z,100231.66
2022-09-15T05:54:30.763Z,100241.97
2022-09-15T05:59:33.248Z,100241.91
2022-09-15T06:04:34.746Z,100247.81
2022-09-15T06:09:36.120Z,100253.06
2022-09-15T06:14:37.437Z,100247.66
2022-09-15T06:19:38.862Z,100250.50
2022-09-15T06:24:40.257Z,100269.28
2022-09-15T06:29:41.600Z,100268.41
2022-09-15T06:34:42.897Z,100281.31
2022-09-15T06:39:44.569Z,100273.56
2022-09-15T06:44:45.905Z,100268.97
2022-09-15T06:49:47.184Z,100275.00
2022-09-15T06:54:49.773Z,100264.47
2022-09-15T06:59:51.225Z,100276.41
2022-09-15T07:04:52.567Z,100281.53
2022-09-15T07:09:53.804Z,100303.00
2022-09-15T07:14:55.171Z,100301.09
2022-09-15T07:19:56.581Z,100312.09
2022-09-15T07:24:57.915Z,100303.34
2022-09-15T07:29:59.166Z,100317.91
2022-09-15T07:35:01.719Z,100321.78
2022-09-15T07:40:03.568Z,100316.47
2022-09-15T07:45:05.491Z,100306.22
2022-09-15T07:50:07.242Z,100319.03
2022-09-15T07:55:09.416Z,100331.88
2022-09-15T08:00:11.477Z,100347.88
2022-09-15T08:05:12.835Z,100339.13
2022-09-15T08:10:14.283Z,100338.66
2022-09-15T08:15:15.636Z,100320.72
2022-09-15T08:20:17.330Z,100353.97
2022-09-15T08:25:18.746Z,100349.16
2022-09-15T08:30:21.219Z,100363.00
2022-09-15T08:35:23.364Z,100369.84
2022-09-15T08:40:36.720Z,100381.44
2022-09-15T08:45:53.163Z,100381.25
2022-09-15T08:50:57.988Z,100385.94
2022-09-15T08:56:05.434Z,100403.19
2022-09-15T09:01:21.747Z,100398.91
2022-09-15T09:06:58.366Z,100390.09
2022-09-15T09:12:27.413Z,100402.56
2022-09-15T09:17:46.729Z,100406.88
2022-09-15T09:22:52.194Z,100389.22
2022-09-15T09:27:54.218Z,100394.19
2022-09-15T09:33:23.945Z,100404.44
2022-09-15T09:38:36.458Z,100399.00
2022-09-15T09:43:38.233Z,100396.50
2022-09-15T09:48:43.220Z,100400.50
2022-09-15T09:53:53.377Z,100404.34
2022-09-15T09:58:54.897Z,100411.13
2022-09-15T10:04:19.568Z,100398.81
2022-09-15T10:09:20.977Z,100390.72
2022-09-15T10:14:38.410Z,100385.22
2022-09-15T10:19:42.534Z,100336.94
2022-09-15T10:24:44.335Z,100374.41
2022-09-15T10:29:46.149Z,100342.53
2022-09-15T10:34:48.800Z,100372.56
2022-09-15T10:39:55.743Z,100367.78
2022-09-15T10:45:09.581Z,100397.19
2022-09-15T10:50:26.805Z,100413.91
2022-09-15T10:55:52.199Z,100425.78
2022-09-15T11:01:18.797Z,100426.25
2022-09-15T11:06:26.538Z,100428.88
2022-09-15T11:11:36.216Z,100435.81
2022-09-15T11:17:12.314Z,100442.84
2022-09-15T11:22:39.050Z,100444.66
2022-09-15T11:27:50.871Z,100433.88
2022-09-15T11:33:20.394Z,100437.13
2022-09-15T11:38:30.637Z,100431.56
2022-09-15T11:43:46.012Z,100423.97
2022-09-15T11:48:57.292Z,100411.19
2022-09-15T11:54:04.921Z,100424.03
2022-09-15T11:59:17.189Z,100423.66
2022-09-15T12:04:41.826Z,100419.44
2022-09-15T12:09:43.295Z,100423.66
2022-09-15T12:14:46.610Z,100438.66
2022-09-15T12:20:14.162Z,100444.72
2022-09-15T12:25:26.585Z,100449.28
2022-09-15T12:30:41.533Z,100445.88
2022-09-15T12:35:42.867Z,100427.75
2022-09-15T12:40:44.285Z,100436.28
2022-09-15T12:46:01.759Z,100435.44
2022-09-15T12:51:05.606Z,100423.94
2022-09-15T12:56:11.550Z,100433.22
2022-09-15T13:01:19.407Z,100429.66
2022-09-15T13:06:25.202Z,100426.84
2022-09-15T13:11:50.125Z,100430.03
2022-09-15T13:16:54.764Z,100418.63
2022-09-15T13:22:11.358Z,100429.00
2022-09-15T13:27:16.469Z,100413.28
2022-09-15T13:32:33.066Z,100399.19
2022-09-15T13:38:08.170Z,100402.44
2022-09-15T13:43:10.989Z,100381.53
2022-09-15T13:48:27.414Z,100385.63
2022-09-15T13:53:47.432Z,100394.03
2022-09-15T13:59:01.715Z,100389.53
2022-09-15T14:04:17.492Z,100390.16
2022-09-15T14:09:20.202Z,100387.38
2022-09-15T14:14:27.354Z,100397.78
2022-09-15T14:19:33.279Z,100401.22
2022-09-15T14:24:40.068Z,100398.47
2022-09-15T14:29:43.229Z,100394.16
2022-09-15T14:34:45.634Z,100395.66
2022-09-15T14:39:57.364Z,100387.88
2022-09-15T14:50:33.796Z,100389.47
2022-09-15T14:55:45.037Z,100383.38
2022-09-15T15:00:57.403Z,100384.53
2022-09-15T15:06:27.684Z,100380.53
2022-09-15T15:11:27.840Z,100364.22
2022-09-15T15:16:31.122Z,100373.59
2022-09-15T15:21:43.834Z,100382.03
2022-09-15T15:26:50.240Z,100371.56
2022-09-15T15:31:51.874Z,100376.00
2022-09-15T15:37:02.557Z,100391.91
2022-09-15T15:42:08.443Z,100386.81
2022-09-15T15:47:12.774Z,100401.63
2022-09-15T15:52:14.162Z,100397.69
2022-09-15T15:57:28.080Z,100399.19
2022-09-15T16:02:30.314Z,100387.41
2022-09-15T16:07:33.495Z,100391.75
2022-09-15T16:12:35.549Z,100405.06
2022-09-15T16:17:37.037Z,100385.34
2022-09-15T16:22:40.522Z,100402.72
2022-09-15T16:27:41.967Z,100404.81
2022-09-15T16:32:43.420Z,100414.44
2022-09-15T16:37:44.830Z,100410.25
2022-09-15T16:42:47.702Z,100416.59
2022-09-15T16:47:49.120Z,100414.13
2022-09-15T16:52:51.631Z,100414.38
2022-09-15T16:57:53.041Z,100401.53
2022-09-15T17:02:54.420Z,100429.09
2022-09-15T17:07:55.885Z,100418.16
2022-09-15T17:12:57.591Z,100431.16
2022-09-15T17:17:59.032Z,100441.06
2022-09-15T17:23:01.701Z,100442.16
2022-09-15T17:28:03.140Z,100449.34
2022-09-15T17:33:12.071Z,100454.59
2022-09-15T17:38:14.557Z,100459.94
2022-09-15T17:43:19.558Z,100457.28
2022-09-15T17:48:22.447Z,100450.44
2022-09-15T17:53:28.145Z,100448.00
2022-09-15T17:58:31.304Z,100434.47
2022-09-15T18:03:35.205Z,100448.28
2022-09-15T18:08:36.765Z,100446.75
2022-09-15T18:13:38.193Z,100445.09
2022-09-15T18:18:41.092Z,100453.06
2022-09-15T18:23:42.553Z,100458.44
2022-09-15T18:28:44.154Z,100451.81
2022-09-15T18:33:45.668Z,100471.75
2022-09-15T18:38:47.087Z,100468.31
2022-09-15T18:43:51.609Z,100466.03
2022-09-15T18:48:53.041Z,100479.78
2022-09-15T18:53:54.717Z,100479.09
2022-09-15T18:58:56.195Z,100474.13
2022-09-15T19:03:57.875Z,100484.63
2022-09-15T19:08:59.369Z,100481.34
2022-09-15T19:14:00.916Z,100481.63
2022-09-15T19:19:02.446Z,100506.72
2022-09-15T19:24:04.044Z,100506.69
2022-09-15T19:29:06.476Z,100511.09
2022-09-15T19:34:08.102Z,100513.94
2022-09-15T19:39:12.073Z,100514.06
2022-09-15T19:44:13.517Z,100506.47
2022-09-15T19:49:15.248Z,100527.38
2022-09-15T19:54:16.709Z,100532.78
2022-09-15T19:59:19.608Z,100536.44
2022-09-15T20:04:21.071Z,100528.00
2022-09-15T20:09:22.703Z,100536.69
2022-09-15T20:14:24.313Z,100539.38
2022-09-15T20:19:25.777Z,100541.16
2022-09-15T20:24:27.141Z,100541.25
2022-09-15T20:29:28.736Z,100545.75
2022-09-15T20:34:30.225Z,100548.34
2022-09-15T20:39:31.603Z,100558.81
2022-09-15T20:44:33.000Z,100546.13
2022-09-15T20:49:34.419Z,100554.75
2022-09-15T20:54:35.805Z,100552.28
2022-09-15T20:59:37.294Z,100552.38
2022-09-15T21:04:38.711Z,100558.41
2022-09-15T21:09:40.113Z,100559.34
2022-09-15T21:14:41.497Z,100566.28
2022-09-15T21:19:43.083Z,100563.72
2022-09-15T21:24:44.586Z,100562.97
2022-09-15T21:29:46.171Z,100529.41
2022-09-15T21:34:47.555Z,100557.94
2022-09-15T21:39:48.922Z,100556.25
2022-09-15T21:44:50.848Z,100540.09
2022-09-15T21:49:52.252Z,100565.19
2022-09-15T21:55:41.402Z,100568.66
2022-09-15T22:00:42.836Z,100569.66
2022-09-15T22:05:46.142Z,100578.38
2022-09-15T22:10:47.473Z,100581.09
2022-09-15T22:15:48.718Z,100594.97
2022-09-15T22:20:50.321Z,100586.25
2022-09-15T22:25:51.664Z,100588.13
2022-09-15T22:30:56.471Z,100594.19
2022-09-15T22:35:57.977Z,100585.66
2022-09-15T22:41:14.455Z,100589.13
2022-09-15T22:46:17.849Z,100582.41
2022-09-15T22:51:19.250Z,100578.06
2022-09-15T22:56:20.740Z,100590.16
2022-09-15T23:01:27.903Z,100589.34
2022-09-15T23:06:32.003Z,100585.09
2022-09-15T23:11:34.176Z,100588.53
2022-09-15T23:16:35.852Z,100581.56
2022-09-15T23:21:37.243Z,100567.88
2022-09-15T23:26:38.721Z,100580.75
2022-09-15T23:31:40.214Z,100573.81
2022-09-15T23:36:41.687Z,100572.16
2022-09-15T23:41:43.449Z,100563.50
2022-09-15T23:46:44.907Z,100566.97
2022-09-15T23:51:46.267Z,100550.66
2022-09-15T23:56:47.618Z,100548.03
